Terminal Aerodrome Forecast
Issued by NWS

Home | Current Version | Previous Version | Text Only | Print | Product List | Glossary On
Versions: 1 2 3 4 5 6 7 8 9 10 11 12 13 14 15 16 17 18 19 20 21 22 23 24
932
FTUS41 KPBZ 260550 CCA
TAFZZV
TAF COR
KZZV 260550Z 2606/2706 27009KT P6SM OVC021
      TEMPO 2606/2609 SCT021
     FM261600 27009KT P6SM BKN035
     FM262300 28005KT P6SM BKN150
     FM270400 15003KT P6SM VCSH BKN250=

USA.gov is the U.S. government's official web portal to all federal, state and local government web resources and services.